Terminal Aerodrome Forecast
Issued by NWS Shreveport, LA

Home | Current Version | Previous Version | Text Only | Print | Product List | Glossary On
Versions: 1 2 3 4 5 6 7 8 9 10 11 12 13 14 15
521
FTUS44 KSHV 200536
TAFELD
TAF
KELD 200536Z 2006/2106 16004KT P6SM BKN250
      TEMPO 2006/2009 5SM BR
     FM200900 18003KT 5SM BR BKN250
      TEMPO 2009/2013 P6SM NSW
     FM201300 20007KT P6SM BKN250
      TEMPO 2015/2017 BKN015
     FM201700 18007KT P6SM BKN025
     FM201900 18007KT P6SM SCT035 SCT045 SCT250
     FM210000 15005KT P6SM SCT050 SCT250=

USA.gov is the U.S. government's official web portal to all federal, state and local government web resources and services.